createdAt,value
2016-11-15T00:00:58.281Z,76.4
2016-11-15T00:02:13.948Z,76.97
2016-11-15T00:03:28.670Z,77.35
2016-11-15T00:04:42.709Z,77.45
2016-11-15T00:05:56.553Z,78.02
2016-11-15T00:07:11.227Z,77.64
2016-11-15T00:08:27.533Z,77.35
2016-11-15T00:09:41.538Z,77.64
2016-11-15T00:10:56.210Z,77.64
2016-11-15T00:12:08.704Z,78.02
2016-11-15T00:13:23.488Z,78.11
2016-11-15T00:14:39.929Z,78.2
2016-11-15T00:15:54.594Z,78.96
2016-11-15T00:17:10.055Z,79.06
2016-11-15T00:18:25.067Z,80
2016-11-15T00:19:37.863Z,79.82
2016-11-15T00:20:53.329Z,79.82
2016-11-15T00:22:09.466Z,80.19
2016-11-15T00:23:22.943Z,80.48
2016-11-15T00:24:39.218Z,80.76
2016-11-15T00:25:54.438Z,81.14
2016-11-15T00:27:07.840Z,80.86
2016-11-15T00:28:21.295Z,81.24
2016-11-15T00:29:33.216Z,81.9
2016-11-15T00:30:49.116Z,82.28
2016-11-15T00:32:05.532Z,82.28
2016-11-15T00:33:21.291Z,82.47
2016-11-15T00:34:35.075Z,82.33
2016-11-15T00:35:50.357Z,82.56
2016-11-15T00:37:03.678Z,82.37
2016-11-15T00:38:18.751Z,82.94
2016-11-15T00:39:33.241Z,82.37
2016-11-15T00:40:49.507Z,81.99
2016-11-15T00:42:02.722Z,82.47
2016-11-15T00:43:18.433Z,81.86
2016-11-15T00:44:34.802Z,82.47
2016-11-15T00:45:50.869Z,82.43
2016-11-15T00:47:05.781Z,82.37
2016-11-15T00:48:21.430Z,82.94
2016-11-15T00:49:32.877Z,82.43
2016-11-15T00:50:47.739Z,82.37
2016-11-15T00:52:03.004Z,81.81
2016-11-15T00:53:18.012Z,82.47
2016-11-15T00:54:32.782Z,81.81
2016-11-15T00:55:46.201Z,81.81
2016-11-15T00:57:00.396Z,82.09
2016-11-15T00:58:12.253Z,82.47
2016-11-15T00:59:27.455Z,82.47
2016-11-15T01:00:41.216Z,82.66
2016-11-15T01:01:57.841Z,82.28
2016-11-15T01:03:11.214Z,82.28
2016-11-15T01:04:24.873Z,81.99
2016-11-15T01:05:39.538Z,81.81
2016-11-15T01:06:54.382Z,82.09
2016-11-15T01:08:10.616Z,82.47
2016-11-15T01:09:23.346Z,81.81
2016-11-15T01:10:39.653Z,82.28
2016-11-15T01:11:55.771Z,82.18
2016-11-15T01:13:10.676Z,82.94
2016-11-15T01:14:25.591Z,82.37
2016-11-15T01:15:40.424Z,82.37
2016-11-15T01:16:56.453Z,82.47
2016-11-15T01:18:12.322Z,82.28
2016-11-15T01:19:27.547Z,82.66
2016-11-15T01:20:44.066Z,82.94
2016-11-15T01:22:00.625Z,82.75
2016-11-15T01:23:15.663Z,82.75
2016-11-15T01:24:28.663Z,82.94
2016-11-15T01:25:42.927Z,82.81
2016-11-15T01:26:57.673Z,82.71
2016-11-15T01:28:14.156Z,83.28
2016-11-15T01:29:27.475Z,83.18
2016-11-15T01:30:43.806Z,82.75
2016-11-15T01:31:58.637Z,83.28
2016-11-15T01:33:10.213Z,83.32
2016-11-15T01:34:25.342Z,83.75
2016-11-15T01:35:38.711Z,83.51
2016-11-15T01:36:54.731Z,83.75
2016-11-15T01:38:09.808Z,83.75
2016-11-15T01:39:24.777Z,84.17
2016-11-15T01:40:39.682Z,84.13
2016-11-15T01:41:54.683Z,84.27
2016-11-15T01:43:07.997Z,84.46
2016-11-15T01:44:22.853Z,84.84
2016-11-15T01:45:36.317Z,85.03
2016-11-15T01:46:51.076Z,84.8
2016-11-15T01:48:05.857Z,85.13
2016-11-15T01:49:17.708Z,85.31
2016-11-15T01:50:31.390Z,85.65
2016-11-15T01:51:44.557Z,85.5
2016-11-15T01:52:58.088Z,85.84
2016-11-15T01:54:13.315Z,86.12
2016-11-15T01:55:25.686Z,86.35
2016-11-15T01:56:40.231Z,86.26
2016-11-15T01:57:55.079Z,86.31
2016-11-15T01:59:08.467Z,86.31
2016-11-15T02:00:24.423Z,86.88
2016-11-15T02:01:37.844Z,86.79
2016-11-15T02:02:52.235Z,86.79
2016-11-15T02:04:05.230Z,86.64
2016-11-15T02:05:18.435Z,86.79
2016-11-15T02:06:32.925Z,86.69
2016-11-15T02:07:47.924Z,87.07
2016-11-15T02:08:59.351Z,87.16
2016-11-15T02:10:16.162Z,87.77
2016-11-15T02:11:32.717Z,87.35
2016-11-15T02:12:45.924Z,87.59
2016-11-15T02:14:01.537Z,88.16
2016-11-15T02:15:14.957Z,88.3
2016-11-15T02:16:30.308Z,88.4
2016-11-15T02:17:45.266Z,88.21
2016-11-15T02:18:58.469Z,88.78
2016-11-15T02:20:15.075Z,88.82
2016-11-15T02:21:29.044Z,88.49
2016-11-15T02:22:42.093Z,88.96
2016-11-15T02:23:56.016Z,88.87
2016-11-15T02:25:11.099Z,88.87
2016-11-15T02:26:25.106Z,88.92
2016-11-15T02:27:36.661Z,88.73
2016-11-15T02:28:51.743Z,89.01
2016-11-15T02:30:08.070Z,89.11
2016-11-15T02:31:24.265Z,88.78
2016-11-15T02:32:39.192Z,89.48
2016-11-15T02:33:55.610Z,89.11
2016-11-15T02:35:11.489Z,89.48
2016-11-15T02:36:27.610Z,89.29
2016-11-15T02:37:42.785Z,89.58
2016-11-15T02:38:58.681Z,89.01
2016-11-15T02:40:13.353Z,89.39
2016-11-15T02:41:27.698Z,89.58
2016-11-15T02:42:42.137Z,89.29
2016-11-15T02:43:57.876Z,89.58
2016-11-15T02:45:14.070Z,89.58
2016-11-15T02:46:30.326Z,89.29
2016-11-15T02:47:45.943Z,89.67
2016-11-15T02:49:01.033Z,89.77
2016-11-15T02:50:16.826Z,89.77
2016-11-15T02:51:31.225Z,89.58
2016-11-15T02:52:45.643Z,90.53
2016-11-15T02:54:00.848Z,90.24
2016-11-15T02:55:17.105Z,90.15
2016-11-15T02:56:33.679Z,90.15
2016-11-15T02:57:47.041Z,90.24
2016-11-15T02:59:01.888Z,90.72
2016-11-15T03:00:13.327Z,90.34
2016-11-15T03:01:25.639Z,90.34
2016-11-15T03:02:40.576Z,90.05
2016-11-15T03:03:55.231Z,90.72
2016-11-15T03:05:10.234Z,90.91
2016-11-15T03:06:24.761Z,90.53
2016-11-15T03:07:39.166Z,90.91
2016-11-15T03:08:53.475Z,90.72
2016-11-15T03:10:09.583Z,91.28
2016-11-15T03:11:23.822Z,91.38
2016-11-15T03:12:38.449Z,90.81
2016-11-15T03:13:53.349Z,91.47
2016-11-15T03:15:07.667Z,91.38
2016-11-15T03:16:22.236Z,91.28
2016-11-15T03:17:37.485Z,91.28
2016-11-15T03:18:53.136Z,91.38
2016-11-15T03:20:09.184Z,91.38
2016-11-15T03:21:25.091Z,91.57
2016-11-15T03:22:38.152Z,91.19
2016-11-15T03:23:54.681Z,91.57
2016-11-15T03:25:09.817Z,91.76
2016-11-15T03:26:25.443Z,91.57
2016-11-15T03:27:40.229Z,91.19
2016-11-15T03:28:56.469Z,91.38
2016-11-15T03:30:11.547Z,91.28
2016-11-15T03:31:27.995Z,91.66
2016-11-15T03:32:44.439Z,91.66
2016-11-15T03:33:59.682Z,91.38
2016-11-15T03:35:12.816Z,91.47
2016-11-15T03:36:29.007Z,91.66
2016-11-15T03:37:44.110Z,91.47
2016-11-15T03:39:00.158Z,91.66
2016-11-15T03:40:13.012Z,91.38
2016-11-15T03:41:27.861Z,91.47
2016-11-15T03:42:42.770Z,91.19
2016-11-15T03:43:58.069Z,91.19
2016-11-15T03:45:13.776Z,91.66
2016-11-15T03:46:26.730Z,91.76
2016-11-15T03:47:43.442Z,91.47
2016-11-15T03:48:59.439Z,91.47
2016-11-15T03:50:14.022Z,92.04
2016-11-15T03:51:28.045Z,92.14
2016-11-15T03:52:44.307Z,91.66
2016-11-15T03:54:00.809Z,91.38
2016-11-15T03:55:12.284Z,91.85
2016-11-15T03:56:25.090Z,92.14
2016-11-15T03:57:38.787Z,91.71
2016-11-15T03:58:50.772Z,91.66
2016-11-15T04:00:03.847Z,92.04
2016-11-15T04:01:18.927Z,91.76
2016-11-15T04:02:34.420Z,92.14
2016-11-15T04:03:51.002Z,92.09
2016-11-15T04:05:07.271Z,92.09
2016-11-15T04:06:20.084Z,92.09
2016-11-15T04:07:34.584Z,91.99
2016-11-15T04:08:50.499Z,92.23
2016-11-15T04:10:03.977Z,92.28
2016-11-15T04:11:18.625Z,92.38
2016-11-15T04:12:34.615Z,92.28
2016-11-15T04:13:50.497Z,92.38
2016-11-15T04:15:04.263Z,92.47
2016-11-15T04:16:18.508Z,91.99
2016-11-15T04:17:34.066Z,92.28
2016-11-15T04:18:48.737Z,92.38
2016-11-15T04:20:05.883Z,92.47
2016-11-15T04:21:20.685Z,92.38
2016-11-15T04:22:35.681Z,92.76
2016-11-15T04:23:50.332Z,92.57
2016-11-15T04:25:06.545Z,92.47
2016-11-15T04:26:22.622Z,92.28
2016-11-15T04:27:38.798Z,92.38
2016-11-15T04:28:52.184Z,92.38
2016-11-15T04:30:08.713Z,92.38
2016-11-15T04:31:23.652Z,92.57
2016-11-15T04:32:37.661Z,92.28
2016-11-15T04:33:52.659Z,92.28
2016-11-15T04:35:05.617Z,92.66
2016-11-15T04:36:20.112Z,92.85
2016-11-15T04:37:36.167Z,92.38
2016-11-15T04:38:52.488Z,92.94
2016-11-15T04:40:07.568Z,93.04
2016-11-15T04:41:22.657Z,93.04
2016-11-15T04:42:38.534Z,92.94
2016-11-15T04:43:54.344Z,92.94
2016-11-15T04:45:08.870Z,92.66
2016-11-15T04:46:24.616Z,92.66
2016-11-15T04:47:37.920Z,92.76
2016-11-15T04:48:54.066Z,92.85
2016-11-15T04:50:05.825Z,92.85
2016-11-15T04:51:21.815Z,93.13
2016-11-15T04:52:35.836Z,93.13
2016-11-15T04:53:48.901Z,93.04
2016-11-15T04:55:01.929Z,93.32
2016-11-15T04:56:17.292Z,93.51
2016-11-15T04:57:33.340Z,93.37
2016-11-15T04:58:49.713Z,93.61
2016-11-15T05:00:04.418Z,93.41
2016-11-15T05:01:20.289Z,93.18
2016-11-15T05:02:33.768Z,93.13
2016-11-15T05:03:47.224Z,93.37
2016-11-15T05:05:01.730Z,93.37
2016-11-15T05:06:13.577Z,93.37
2016-11-15T05:07:28.003Z,93.27
2016-11-15T05:08:42.984Z,93.46
2016-11-15T05:09:59.565Z,93.37
2016-11-15T05:11:14.558Z,93.27
2016-11-15T05:12:30.375Z,92.99
2016-11-15T05:13:46.270Z,93.27
2016-11-15T05:15:00.775Z,93.27
2016-11-15T05:16:16.974Z,93.56
2016-11-15T05:17:31.674Z,93.75
2016-11-15T05:18:48.195Z,93.65
2016-11-15T05:20:00.437Z,93.56
2016-11-15T05:21:15.702Z,93.84
2016-11-15T05:22:30.922Z,93.46
2016-11-15T05:23:44.981Z,93.56
2016-11-15T05:25:01.286Z,94.23
2016-11-15T05:26:17.456Z,93.46
2016-11-15T05:27:30.917Z,93.94
2016-11-15T05:28:47.048Z,94.03
2016-11-15T05:30:03.024Z,93.94
2016-11-15T05:31:16.644Z,94.32
2016-11-15T05:32:30.171Z,94.13
2016-11-15T05:33:46.262Z,94.03
2016-11-15T05:35:01.261Z,94.23
2016-11-15T05:36:17.576Z,93.75
2016-11-15T05:37:30.896Z,93.94
2016-11-15T05:38:44.718Z,94.13
2016-11-15T05:39:58.249Z,94.13
2016-11-15T05:41:11.771Z,93.94
2016-11-15T05:42:28.132Z,94.03
2016-11-15T05:43:41.892Z,94.03
2016-11-15T05:44:58.169Z,93.94
2016-11-15T05:46:13.169Z,93.84
2016-11-15T05:47:29.447Z,93.94
2016-11-15T05:48:46.020Z,94.03
2016-11-15T05:50:01.093Z,94.32
2016-11-15T05:51:17.218Z,93.94
2016-11-15T05:52:31.705Z,94.03
2016-11-15T05:53:48.213Z,94.03
2016-11-15T05:55:03.170Z,94.03
2016-11-15T05:56:19.370Z,94.32
2016-11-15T05:57:34.050Z,94.03
2016-11-15T05:58:45.972Z,93.84
2016-11-15T05:59:59.862Z,94.03
2016-11-15T06:01:15.982Z,94.23
2016-11-15T06:02:30.755Z,94.23
2016-11-15T06:03:44.381Z,94.32
2016-11-15T06:04:59.082Z,94.37
2016-11-15T06:06:15.357Z,94.18
2016-11-15T06:07:32.203Z,94.37
2016-11-15T06:08:47.075Z,93.8
2016-11-15T06:10:01.903Z,94.27
2016-11-15T06:11:16.726Z,94.08
2016-11-15T06:12:30.563Z,94.08
2016-11-15T06:13:47.264Z,94.08
2016-11-15T06:15:00.349Z,93.89
2016-11-15T06:16:16.887Z,93.8
2016-11-15T06:17:31.652Z,93.8
2016-11-15T06:18:47.800Z,94.18
2016-11-15T06:20:02.643Z,94.37
2016-11-15T06:21:19.738Z,94.08
2016-11-15T06:22:34.128Z,94.08
2016-11-15T06:23:50.651Z,94.08
2016-11-15T06:25:05.559Z,94.37
2016-11-15T06:26:19.176Z,93.8
2016-11-15T06:27:35.295Z,94.08
2016-11-15T06:28:49.826Z,93.99
2016-11-15T06:30:03.673Z,93.6
2016-11-15T06:31:20.023Z,94.18
2016-11-15T06:32:34.433Z,94.08
2016-11-15T06:33:50.846Z,93.51
2016-11-15T06:35:04.470Z,93.6
2016-11-15T06:36:19.456Z,93.51
2016-11-15T06:37:34.458Z,93.6
2016-11-15T06:38:50.832Z,94.18
2016-11-15T06:40:06.941Z,93.41
2016-11-15T06:41:21.950Z,93.99
2016-11-15T06:42:36.709Z,93.6
2016-11-15T06:43:51.958Z,93.51
2016-11-15T06:45:03.762Z,93.6
2016-11-15T06:46:18.896Z,93.32
2016-11-15T06:47:31.968Z,93.51
2016-11-15T06:48:46.057Z,94.37
2016-11-15T06:50:00.112Z,93.99
2016-11-15T06:51:15.769Z,93.6
2016-11-15T06:52:30.594Z,93.41
2016-11-15T06:53:43.770Z,93.6
2016-11-15T06:54:59.175Z,93.99
2016-11-15T06:56:12.632Z,94.37
2016-11-15T06:57:27.698Z,93.99
2016-11-15T06:58:43.757Z,94.18
2016-11-15T06:59:56.986Z,94.08
2016-11-15T07:01:11.816Z,93.8
2016-11-15T07:02:25.056Z,94.08
2016-11-15T07:03:37.452Z,93.8
2016-11-15T07:04:52.529Z,94.18
2016-11-15T07:06:07.528Z,93.51
2016-11-15T07:07:20.928Z,94.08
2016-11-15T07:08:34.431Z,93.41
2016-11-15T07:09:49.017Z,93.89
2016-11-15T07:11:03.557Z,93.6
2016-11-15T07:12:19.205Z,93.89
2016-11-15T07:13:34.226Z,93.32
2016-11-15T07:14:50.265Z,94.18
2016-11-15T07:16:04.826Z,93.51
2016-11-15T07:17:20.225Z,94.08
2016-11-15T07:18:35.289Z,94.18
2016-11-15T07:19:51.984Z,93.89
2016-11-15T07:21:06.463Z,93.8
2016-11-15T07:22:21.302Z,94.37
2016-11-15T07:23:37.737Z,94.08
2016-11-15T07:24:51.258Z,94.27
2016-11-15T07:26:07.175Z,93.89
2016-11-15T07:27:23.195Z,94.18
2016-11-15T07:28:37.618Z,93.8
2016-11-15T07:29:52.271Z,94.08
2016-11-15T07:31:08.378Z,94.08
2016-11-15T07:32:22.844Z,94.65
2016-11-15T07:33:37.949Z,94.08
2016-11-15T07:34:53.587Z,94.65
2016-11-15T07:36:08.269Z,94.56
2016-11-15T07:37:22.198Z,95.03
2016-11-15T07:38:38.379Z,94.08
2016-11-15T07:39:53.280Z,93.89
2016-11-15T07:41:08.645Z,94.18
2016-11-15T07:42:20.510Z,94.08
2016-11-15T07:43:34.142Z,94.18
2016-11-15T07:44:48.429Z,94.27
2016-11-15T07:46:01.521Z,94.08
2016-11-15T07:47:13.194Z,94.18
2016-11-15T07:48:26.839Z,94.18
2016-11-15T07:49:41.347Z,94.27
2016-11-15T07:50:58.037Z,94.27
2016-11-15T07:52:14.498Z,94.08
2016-11-15T07:53:31.077Z,94.27
2016-11-15T07:54:46.523Z,94.08
2016-11-15T07:56:00.021Z,93.99
2016-11-15T07:57:16.518Z,94.08
2016-11-15T07:58:27.130Z,94.08
2016-11-15T07:59:42.979Z,94.08
2016-11-15T08:00:56.392Z,93.7
2016-11-15T08:02:09.327Z,93.8
2016-11-15T08:03:24.298Z,94.27
2016-11-15T08:04:39.527Z,94.08
2016-11-15T08:05:56.248Z,94.37
2016-11-15T08:07:07.683Z,93.89
2016-11-15T08:08:23.654Z,94.08
2016-11-15T08:09:40.655Z,93.99
2016-11-15T08:10:52.779Z,93.99
2016-11-15T08:12:09.453Z,93.99
2016-11-15T08:13:26.082Z,93.99
2016-11-15T08:14:38.181Z,94.08
2016-11-15T08:15:54.589Z,94.27
2016-11-15T08:17:10.105Z,94.03
2016-11-15T08:18:23.554Z,94.27
2016-11-15T08:19:36.594Z,94.37
2016-11-15T08:20:51.646Z,94.13
2016-11-15T08:22:06.412Z,94.32
2016-11-15T08:23:21.922Z,94.13
2016-11-15T08:24:38.233Z,94.13
2016-11-15T08:25:52.508Z,93.84
2016-11-15T08:27:07.828Z,94.03
2016-11-15T08:28:24.260Z,94.23
2016-11-15T08:29:40.559Z,94.13
2016-11-15T08:30:55.788Z,94.51
2016-11-15T08:32:10.042Z,94.03
2016-11-15T08:33:24.829Z,94.13
2016-11-15T08:34:39.783Z,94.23
2016-11-15T08:35:56.101Z,93.94
2016-11-15T08:37:12.418Z,93.94
2016-11-15T08:38:28.539Z,93.46
2016-11-15T08:39:43.070Z,93.46
2016-11-15T08:40:59.743Z,94.13
2016-11-15T08:42:14.825Z,93.84
2016-11-15T08:43:29.423Z,93.94
2016-11-15T08:44:45.867Z,93.46
2016-11-15T08:45:59.082Z,94.03
2016-11-15T08:47:15.237Z,94.13
2016-11-15T08:48:29.984Z,94.23
2016-11-15T08:49:45.033Z,93.75
2016-11-15T08:50:59.890Z,94.23
2016-11-15T08:52:13.755Z,94.13
2016-11-15T08:53:27.566Z,94.79
2016-11-15T08:54:42.640Z,94.7
2016-11-15T08:56:04.914Z,94.51
2016-11-15T08:57:18.955Z,94.51
2016-11-15T08:58:34.101Z,94.51
2016-11-15T08:59:47.142Z,94.6
2016-11-15T09:01:02.269Z,94.51
2016-11-15T09:02:16.472Z,94.7
2016-11-15T09:03:33.012Z,94.32
2016-11-15T09:04:45.823Z,94.23
2016-11-15T09:06:02.682Z,94.32
2016-11-15T09:07:17.537Z,94.42
2016-11-15T09:08:31.189Z,94.32
2016-11-15T09:09:46.048Z,94.42
2016-11-15T09:11:00.684Z,94.23
2016-11-15T09:12:14.576Z,94.51
2016-11-15T09:13:30.638Z,94.51
2016-11-15T09:14:42.679Z,94.6
2016-11-15T09:15:59.611Z,94.42
2016-11-15T09:17:16.717Z,94.51
2016-11-15T09:18:28.727Z,94.6
2016-11-15T09:19:44.754Z,94.6
2016-11-15T09:21:00.958Z,94.13
2016-11-15T09:22:14.746Z,94.42
2016-11-15T09:23:31.362Z,94.51
2016-11-15T09:24:47.702Z,94.79
2016-11-15T09:26:02.487Z,94.23
2016-11-15T09:27:18.795Z,94.13
2016-11-15T09:28:35.093Z,94.51
2016-11-15T09:29:50.348Z,94.13
2016-11-15T09:31:06.797Z,94.56
2016-11-15T09:32:23.356Z,93.84
2016-11-15T09:33:36.329Z,94.37
2016-11-15T09:34:52.338Z,94.18
2016-11-15T09:36:06.965Z,94.27
2016-11-15T09:37:22.611Z,93.94
2016-11-15T09:38:37.433Z,93.56
2016-11-15T09:39:50.981Z,94.46
2016-11-15T09:41:06.108Z,94.13
2016-11-15T09:42:19.177Z,94.32
2016-11-15T09:43:36.008Z,94.13
2016-11-15T09:44:50.848Z,94.27
2016-11-15T09:46:03.888Z,94.03
2016-11-15T09:47:18.414Z,93.89
2016-11-15T09:48:32.861Z,93.99
2016-11-15T09:49:48.507Z,93.56
2016-11-15T09:51:04.802Z,93.99
2016-11-15T09:52:21.485Z,93.99
2016-11-15T09:53:36.063Z,93.7
2016-11-15T09:54:50.495Z,93.7
2016-11-15T09:56:06.341Z,93.7
2016-11-15T09:57:20.948Z,93.6
2016-11-15T09:58:35.996Z,93.89
2016-11-15T09:59:50.496Z,93.99
2016-11-15T10:01:04.912Z,93.6
2016-11-15T10:02:19.613Z,93.51
2016-11-15T10:03:33.452Z,94.27
2016-11-15T10:04:48.791Z,94.18
2016-11-15T10:06:03.890Z,94.18
2016-11-15T10:07:19.932Z,94.18
2016-11-15T10:08:33.622Z,94.08
2016-11-15T10:09:47.909Z,94.27
2016-11-15T10:11:02.367Z,94.18
2016-11-15T10:12:18.003Z,94.08
2016-11-15T10:13:34.325Z,94.27
2016-11-15T10:14:48.891Z,94.08
2016-11-15T10:16:03.735Z,93.6
2016-11-15T10:17:18.524Z,93.51
2016-11-15T10:18:32.702Z,93.6
2016-11-15T10:19:47.371Z,93.51
2016-11-15T10:21:03.232Z,93.99
2016-11-15T10:22:17.079Z,94.08
2016-11-15T10:23:33.604Z,94.18
2016-11-15T10:24:49.695Z,94.18
2016-11-15T10:26:04.134Z,94.18
2016-11-15T10:27:17.521Z,94.65
2016-11-15T10:28:32.611Z,94.37
2016-11-15T10:29:48.675Z,94.74
2016-11-15T10:31:02.118Z,94.46
2016-11-15T10:32:17.577Z,94.27
2016-11-15T10:33:33.176Z,94.65
2016-11-15T10:35:00.005Z,94.37
2016-11-15T10:36:12.186Z,94.18
2016-11-15T10:37:28.504Z,94.08
2016-11-15T10:38:43.751Z,93.99
2016-11-15T10:40:00.453Z,94.18
2016-11-15T10:41:15.296Z,94.18
2016-11-15T10:42:32.346Z,93.99
2016-11-15T10:43:46.230Z,94.37
2016-11-15T10:44:57.796Z,94.18
2016-11-15T10:46:12.402Z,94.27
2016-11-15T10:47:26.287Z,94.27
2016-11-15T10:48:43.133Z,94.37
2016-11-15T10:49:56.149Z,93.99
2016-11-15T10:51:11.318Z,94.27
2016-11-15T10:52:24.734Z,93.99
2016-11-15T10:53:39.571Z,94.08
2016-11-15T10:54:56.095Z,94.18
2016-11-15T10:56:09.819Z,94.37
2016-11-15T10:57:25.865Z,93.99
2016-11-15T10:58:41.165Z,93.89
2016-11-15T10:59:56.274Z,94.56
2016-11-15T11:01:11.199Z,94.18
2016-11-15T11:02:27.114Z,94.08
2016-11-15T11:03:43.887Z,94.18
2016-11-15T11:04:58.942Z,94.37
2016-11-15T11:06:15.051Z,94.18
2016-11-15T11:07:30.544Z,94.03
2016-11-15T11:08:43.790Z,94.37
2016-11-15T11:09:57.238Z,93.65
2016-11-15T11:11:13.638Z,93.46
2016-11-15T11:12:29.667Z,93.75
2016-11-15T11:13:45.041Z,93.94
2016-11-15T11:14:58.557Z,94.03
2016-11-15T11:16:13.881Z,93.65
2016-11-15T11:17:29.890Z,94.03
2016-11-15T11:18:44.871Z,93.55
2016-11-15T11:19:59.252Z,93.65
2016-11-15T11:21:15.370Z,93.37
2016-11-15T11:22:32.644Z,93.65
2016-11-15T11:23:46.432Z,93.75
2016-11-15T11:25:00.889Z,93.84
2016-11-15T11:26:15.711Z,93.55
2016-11-15T11:27:30.160Z,93.75
2016-11-15T11:28:45.506Z,93.65
2016-11-15T11:30:01.832Z,93.75
2016-11-15T11:31:15.612Z,93.46
2016-11-15T11:32:29.365Z,93.46
2016-11-15T11:33:43.910Z,93.55
2016-11-15T11:34:58.904Z,93.18
2016-11-15T11:36:15.642Z,93.65
2016-11-15T11:37:30.598Z,93.55
2016-11-15T11:38:44.063Z,93.55
2016-11-15T11:40:00.905Z,93.75
2016-11-15T11:41:16.799Z,93.46
2016-11-15T11:42:29.727Z,94.03
2016-11-15T11:43:45.246Z,93.94
2016-11-15T11:45:01.568Z,93.55
2016-11-15T11:46:16.895Z,94.03
2016-11-15T11:47:33.593Z,93.27
2016-11-15T11:48:49.927Z,93.84
2016-11-15T11:50:04.308Z,93.65
2016-11-15T11:51:20.101Z,93.65
2016-11-15T11:52:35.082Z,93.65
2016-11-15T11:53:48.253Z,93.65
2016-11-15T11:55:02.298Z,94.13
2016-11-15T11:56:18.111Z,94.03
2016-11-15T11:57:33.445Z,93.94
2016-11-15T11:58:49.399Z,94.03
2016-11-15T12:00:04.681Z,94.22
2016-11-15T12:01:21.236Z,94.03
2016-11-15T12:02:37.400Z,94.32
2016-11-15T12:03:50.541Z,93.94
2016-11-15T12:05:06.822Z,94.32
2016-11-15T12:06:21.549Z,94.22
2016-11-15T12:07:37.680Z,94.13
2016-11-15T12:08:54.575Z,94.22
2016-11-15T12:10:11.279Z,94.22
2016-11-15T12:11:25.118Z,94.22
2016-11-15T12:12:41.441Z,94.03
2016-11-15T12:13:56.504Z,94.51
2016-11-15T12:15:09.645Z,93.94
2016-11-15T12:16:24.910Z,94.13
2016-11-15T12:17:37.773Z,94.22
2016-11-15T12:18:51.961Z,94.03
2016-11-15T12:20:05.788Z,94.51
2016-11-15T12:21:21.517Z,94.22
2016-11-15T12:22:36.784Z,93.94
2016-11-15T12:23:53.069Z,94.42
2016-11-15T12:25:06.758Z,94.32
2016-11-15T12:26:23.319Z,94.03
2016-11-15T12:27:35.422Z,94.42
2016-11-15T12:28:52.629Z,93.94
2016-11-15T12:30:05.855Z,94.42
2016-11-15T12:31:22.141Z,94.22
2016-11-15T12:32:35.525Z,93.79
2016-11-15T12:33:49.236Z,94.18
2016-11-15T12:35:05.377Z,93.79
2016-11-15T12:36:20.803Z,93.75
2016-11-15T12:37:36.726Z,93.75
2016-11-15T12:38:50.220Z,93.79
2016-11-15T12:40:06.270Z,93.65
2016-11-15T12:41:19.738Z,94.27
2016-11-15T12:42:36.732Z,94.08
2016-11-15T12:43:50.468Z,94.22
2016-11-15T12:45:02.425Z,94.37
2016-11-15T12:46:17.614Z,94.32
2016-11-15T12:47:31.475Z,94.32
2016-11-15T12:48:47.748Z,94.65
2016-11-15T12:50:00.743Z,94.7
2016-11-15T12:51:15.095Z,94.65
2016-11-15T12:52:31.460Z,94.37
2016-11-15T12:53:45.137Z,94.65
2016-11-15T12:55:01.462Z,94.27
2016-11-15T12:56:17.780Z,94.7
2016-11-15T12:57:34.728Z,94.22
2016-11-15T12:58:48.347Z,94.84
2016-11-15T13:00:03.375Z,94.51
2016-11-15T13:01:19.686Z,94.84
2016-11-15T13:02:34.063Z,94.74
2016-11-15T13:03:48.084Z,94.56
2016-11-15T13:05:02.987Z,94.56
2016-11-15T13:06:17.662Z,94.65
2016-11-15T13:07:32.656Z,94.65
2016-11-15T13:08:49.555Z,94.84
2016-11-15T13:10:02.968Z,94.93
2016-11-15T13:11:18.058Z,94.84
2016-11-15T13:12:31.576Z,94.37
2016-11-15T13:13:46.696Z,94.74
2016-11-15T13:15:03.553Z,94.93
2016-11-15T13:16:18.170Z,95.12
2016-11-15T13:17:33.669Z,95.12
2016-11-15T13:18:48.911Z,94.18
2016-11-15T13:20:04.105Z,93.98
2016-11-15T13:21:18.121Z,94.93
2016-11-15T13:22:34.873Z,94.84
2016-11-15T13:23:49.352Z,94.56
2016-11-15T13:25:02.818Z,94.84
2016-11-15T13:26:18.955Z,94.65
2016-11-15T13:27:33.329Z,94.84
2016-11-15T13:28:46.524Z,94.74
2016-11-15T13:30:01.832Z,94.65
2016-11-15T13:31:19.040Z,94.46
2016-11-15T13:32:33.885Z,94.84
2016-11-15T13:33:47.454Z,94.56
2016-11-15T13:35:02.361Z,95.32
2016-11-15T13:36:15.808Z,94.65
2016-11-15T13:37:32.200Z,94.93
2016-11-15T13:38:48.758Z,95.32
2016-11-15T13:40:05.213Z,95.12
2016-11-15T13:41:17.469Z,95.03
2016-11-15T13:42:30.850Z,94.84
2016-11-15T13:43:44.565Z,95.41
2016-11-15T13:44:57.974Z,95.12
2016-11-15T13:46:14.165Z,95.79
2016-11-15T13:47:24.737Z,95.6
2016-11-15T13:48:41.310Z,95.98
2016-11-15T13:49:56.355Z,95.32
2016-11-15T13:51:11.813Z,95.22
2016-11-15T13:52:28.244Z,95.6
2016-11-15T13:53:38.922Z,95.22
2016-11-15T13:54:55.747Z,95.41
2016-11-15T13:56:10.848Z,95.89
2016-11-15T13:57:25.452Z,95.7
2016-11-15T13:58:38.695Z,95.89
2016-11-15T13:59:54.727Z,95.6
2016-11-15T14:01:09.023Z,95.89
2016-11-15T14:02:24.262Z,95.79
2016-11-15T14:03:37.698Z,95.41
2016-11-15T14:04:50.691Z,95.51
2016-11-15T14:06:03.281Z,95.32
2016-11-15T14:07:18.118Z,95.41
2016-11-15T14:08:33.233Z,95.51
2016-11-15T14:09:50.189Z,95.41
2016-11-15T14:11:05.278Z,95.22
2016-11-15T14:12:19.355Z,95.41
2016-11-15T14:13:34.052Z,95.41
2016-11-15T14:14:47.700Z,95.22
2016-11-15T14:16:02.991Z,95.03
2016-11-15T14:17:18.001Z,95.7
2016-11-15T14:18:31.732Z,95.32
2016-11-15T14:19:46.448Z,95.41
2016-11-15T14:21:01.907Z,95.41
2016-11-15T14:22:18.396Z,95.51
2016-11-15T14:23:35.354Z,95.32
2016-11-15T14:24:48.703Z,95.6
2016-11-15T14:26:04.256Z,95.22
2016-11-15T14:27:17.574Z,95.51
2016-11-15T14:28:31.922Z,95.6
2016-11-15T14:29:44.216Z,95.6
2016-11-15T14:30:57.262Z,95.22
2016-11-15T14:32:12.088Z,95.22
2016-11-15T14:33:26.108Z,95.22
2016-11-15T14:34:41.641Z,95.6
2016-11-15T14:35:54.716Z,95.41
2016-11-15T14:37:09.565Z,95.12
2016-11-15T14:38:22.685Z,95.03
2016-11-15T14:39:36.166Z,95.22
2016-11-15T14:40:51.418Z,95.41
2016-11-15T14:42:05.921Z,95.22
2016-11-15T14:43:20.947Z,95.41
2016-11-15T14:44:34.091Z,95.41
2016-11-15T14:45:50.127Z,95.22
2016-11-15T14:47:05.173Z,95.12
2016-11-15T14:48:15.702Z,95.6
2016-11-15T14:49:29.106Z,95.6
2016-11-15T14:50:45.811Z,95.12
2016-11-15T14:52:01.744Z,94.93
2016-11-15T14:53:15.984Z,95.51
2016-11-15T14:54:32.279Z,95.12
2016-11-15T14:55:44.712Z,95.6
2016-11-15T14:57:00.437Z,95.03
2016-11-15T14:58:17.413Z,95.6
2016-11-15T14:59:33.981Z,95.41
2016-11-15T15:00:48.651Z,95.51
2016-11-15T15:02:04.229Z,95.51
2016-11-15T15:03:21.149Z,95.41
2016-11-15T15:04:36.225Z,95.12
2016-11-15T15:05:51.857Z,95.41
2016-11-15T15:07:08.399Z,95.22
2016-11-15T15:08:21.810Z,95.6
2016-11-15T15:09:35.549Z,95.22
2016-11-15T15:10:50.308Z,95.6
2016-11-15T15:12:03.870Z,95.41
2016-11-15T15:13:19.754Z,95.32
2016-11-15T15:14:36.638Z,95.32
2016-11-15T15:15:50.065Z,95.84
2016-11-15T15:17:05.149Z,95.6
2016-11-15T15:18:20.332Z,95.32
2016-11-15T15:19:33.717Z,95.36
2016-11-15T15:20:47.607Z,95.41
2016-11-15T15:22:02.474Z,95.27
2016-11-15T15:23:19.415Z,95.51
2016-11-15T15:24:34.894Z,95.27
2016-11-15T15:25:49.548Z,95.22
2016-11-15T15:27:05.724Z,95.03
2016-11-15T15:28:19.439Z,95.03
2016-11-15T15:29:35.185Z,95.32
2016-11-15T15:30:50.509Z,95.46
2016-11-15T15:32:03.960Z,95.6
2016-11-15T15:33:18.595Z,95.6
2016-11-15T15:34:35.042Z,95.41
2016-11-15T15:35:50.369Z,95.41
2016-11-15T15:37:07.104Z,95.41
2016-11-15T15:38:23.992Z,95.65
2016-11-15T15:39:38.329Z,95.36
2016-11-15T15:40:51.582Z,95.27
2016-11-15T15:42:06.495Z,95.56
2016-11-15T15:43:21.199Z,95.36
2016-11-15T15:44:37.724Z,95.46
2016-11-15T15:45:52.394Z,95.46
2016-11-15T15:47:07.029Z,95.56
2016-11-15T15:48:21.782Z,95.94
2016-11-15T15:49:38.364Z,95.56
2016-11-15T15:50:53.206Z,95.65
2016-11-15T15:52:09.787Z,95.6
2016-11-15T15:53:24.771Z,95.27
2016-11-15T15:54:37.020Z,95.65
2016-11-15T15:55:52.264Z,95.65
2016-11-15T15:57:06.995Z,95.27
2016-11-15T15:58:22.928Z,95.36
2016-11-15T15:59:38.438Z,95.94
2016-11-15T16:00:54.614Z,95.65
2016-11-15T16:02:11.349Z,95.36
2016-11-15T16:03:26.453Z,95.56
2016-11-15T16:04:42.369Z,95.36
2016-11-15T16:05:58.910Z,95.46
2016-11-15T16:07:15.236Z,95.84